sensor_id;sensor_type;location;lat;lon;timestamp;temperature;humidity
1546;DHT22;766;51.502;9.752;2023-07-13T00:01:14;17.80;99.90
1546;DHT22;766;51.502;9.752;2023-07-13T00:03:44;17.80;99.90
1546;DHT22;766;51.502;9.752;2023-07-13T00:06:12;17.80;99.90
1546;DHT22;766;51.502;9.752;2023-07-13T00:08:41;17.70;99.90
1546;DHT22;766;51.502;9.752;2023-07-13T00:11:09;17.80;99.90
1546;DHT22;766;51.502;9.752;2023-07-13T00:13:38;17.80;99.90
1546;DHT22;766;51.502;9.752;2023-07-13T00:16:09;17.80;99.90
1546;DHT22;766;51.502;9.752;2023-07-13T00:18:38;17.80;99.90
1546;DHT22;766;51.502;9.752;2023-07-13T00:21:08;17.80;99.90
1546;DHT22;766;51.502;9.752;2023-07-13T00:23:39;17.70;99.90
1546;DHT22;766;51.502;9.752;2023-07-13T00:26:09;17.70;99.90
1546;DHT22;766;51.502;9.752;2023-07-13T00:28:40;17.70;99.90
1546;DHT22;766;51.502;9.752;2023-07-13T00:31:09;17.60;99.90
1546;DHT22;766;51.502;9.752;2023-07-13T00:33:38;17.50;99.90
1546;DHT22;766;51.502;9.752;2023-07-13T00:36:09;17.60;99.90
1546;DHT22;766;51.502;9.752;2023-07-13T00:38:38;17.60;99.90
1546;DHT22;766;51.502;9.752;2023-07-13T00:41:08;17.60;99.90
1546;DHT22;766;51.502;9.752;2023-07-13T00:43:37;17.50;99.90
1546;DHT22;766;51.502;9.752;2023-07-13T00:46:27;17.50;99.90
1546;DHT22;766;51.502;9.752;2023-07-13T00:48:58;17.40;99.90
1546;DHT22;766;51.502;9.752;2023-07-13T00:51:32;17.30;99.90
1546;DHT22;766;51.502;9.752;2023-07-13T00:54:05;17.40;99.90
1546;DHT22;766;51.502;9.752;2023-07-13T00:56:36;17.50;99.90
1546;DHT22;766;51.502;9.752;2023-07-13T00:59:07;17.50;99.90
1546;DHT22;766;51.502;9.752;2023-07-13T01:01:36;17.40;99.90
1546;DHT22;766;51.502;9.752;2023-07-13T01:04:06;17.20;99.90
1546;DHT22;766;51.502;9.752;2023-07-13T01:06:38;17.30;99.90
1546;DHT22;766;51.502;9.752;2023-07-13T01:09:07;17.40;99.90
1546;DHT22;766;51.502;9.752;2023-07-13T01:11:37;17.20;99.90
1546;DHT22;766;51.502;9.752;2023-07-13T01:14:05;17.20;99.90
1546;DHT22;766;51.502;9.752;2023-07-13T01:16:36;17.20;99.90
1546;DHT22;766;51.502;9.752;2023-07-13T01:19:12;17.30;99.90
1546;DHT22;766;51.502;9.752;2023-07-13T01:21:44;17.30;99.90
1546;DHT22;766;51.502;9.752;2023-07-13T01:24:17;17.40;99.90
1546;DHT22;766;51.502;9.752;2023-07-13T01:26:45;17.40;99.90
1546;DHT22;766;51.502;9.752;2023-07-13T01:29:14;17.40;99.90
1546;DHT22;766;51.502;9.752;2023-07-13T01:31:42;17.50;99.90
1546;DHT22;766;51.502;9.752;2023-07-13T01:34:12;17.60;99.90
1546;DHT22;766;51.502;9.752;2023-07-13T01:36:41;17.60;99.90
1546;DHT22;766;51.502;9.752;2023-07-13T01:39:10;17.40;99.90
1546;DHT22;766;51.502;9.752;2023-07-13T01:41:39;17.60;99.90
1546;DHT22;766;51.502;9.752;2023-07-13T01:44:07;17.70;99.90
1546;DHT22;766;51.502;9.752;2023-07-13T01:46:35;17.90;99.90
1546;DHT22;766;51.502;9.752;2023-07-13T01:49:04;18.00;99.90
1546;DHT22;766;51.502;9.752;2023-07-13T01:51:32;18.00;99.90
1546;DHT22;766;51.502;9.752;2023-07-13T01:54:00;18.00;99.90
1546;DHT22;766;51.502;9.752;2023-07-13T01:56:30;18.10;99.90
1546;DHT22;766;51.502;9.752;2023-07-13T01:58:58;18.20;99.90
1546;DHT22;766;51.502;9.752;2023-07-13T02:01:27;18.10;99.90
1546;DHT22;766;51.502;9.752;2023-07-13T02:03:55;18.00;99.90
1546;DHT22;766;51.502;9.752;2023-07-13T02:06:23;17.90;99.90
1546;DHT22;766;51.502;9.752;2023-07-13T02:08:51;17.80;99.90
1546;DHT22;766;51.502;9.752;2023-07-13T02:11:20;17.90;99.90
1546;DHT22;766;51.502;9.752;2023-07-13T02:13:50;17.80;99.90
1546;DHT22;766;51.502;9.752;2023-07-13T02:16:18;17.60;99.90
1546;DHT22;766;51.502;9.752;2023-07-13T02:18:47;17.40;99.90
1546;DHT22;766;51.502;9.752;2023-07-13T02:21:15;17.40;99.90
1546;DHT22;766;51.502;9.752;2023-07-13T02:23:49;17.40;99.90
1546;DHT22;766;51.502;9.752;2023-07-13T02:26:17;17.40;99.90
1546;DHT22;766;51.502;9.752;2023-07-13T02:28:46;17.30;99.90
1546;DHT22;766;51.502;9.752;2023-07-13T02:31:16;17.10;99.90
1546;DHT22;766;51.502;9.752;2023-07-13T02:33:45;16.90;99.90
1546;DHT22;766;51.502;9.752;2023-07-13T02:36:14;16.50;99.90
1546;DHT22;766;51.502;9.752;2023-07-13T02:38:43;16.40;99.90
1546;DHT22;766;51.502;9.752;2023-07-13T02:41:11;16.20;99.90
1546;DHT22;766;51.502;9.752;2023-07-13T02:43:40;16.10;99.90
1546;DHT22;766;51.502;9.752;2023-07-13T02:46:09;15.90;99.90
1546;DHT22;766;51.502;9.752;2023-07-13T02:48:40;15.90;99.90
1546;DHT22;766;51.502;9.752;2023-07-13T02:51:09;15.90;99.90
1546;DHT22;766;51.502;9.752;2023-07-13T02:53:37;15.80;99.90
1546;DHT22;766;51.502;9.752;2023-07-13T02:56:06;15.80;99.90
1546;DHT22;766;51.502;9.752;2023-07-13T02:58:35;15.80;99.90
1546;DHT22;766;51.502;9.752;2023-07-13T03:01:24;15.80;99.90
1546;DHT22;766;51.502;9.752;2023-07-13T03:03:54;15.70;99.90
1546;DHT22;766;51.502;9.752;2023-07-13T03:06:23;15.60;99.90
1546;DHT22;766;51.502;9.752;2023-07-13T03:08:54;15.50;99.90
1546;DHT22;766;51.502;9.752;2023-07-13T03:11:23;15.50;99.90
1546;DHT22;766;51.502;9.752;2023-07-13T03:13:52;15.40;99.90
1546;DHT22;766;51.502;9.752;2023-07-13T03:16:20;15.70;99.90
1546;DHT22;766;51.502;9.752;2023-07-13T03:18:49;15.60;99.90
1546;DHT22;766;51.502;9.752;2023-07-13T03:21:21;15.70;99.90
1546;DHT22;766;51.502;9.752;2023-07-13T03:23:49;15.70;99.90
1546;DHT22;766;51.502;9.752;2023-07-13T03:26:19;15.70;99.90
1546;DHT22;766;51.502;9.752;2023-07-13T03:28:48;15.80;99.90
1546;DHT22;766;51.502;9.752;2023-07-13T03:31:18;15.70;99.90
1546;DHT22;766;51.502;9.752;2023-07-13T03:33:48;15.60;99.90
1546;DHT22;766;51.502;9.752;2023-07-13T03:36:21;15.60;99.90
1546;DHT22;766;51.502;9.752;2023-07-13T03:38:52;15.70;99.90
1546;DHT22;766;51.502;9.752;2023-07-13T03:41:22;15.70;99.90
1546;DHT22;766;51.502;9.752;2023-07-13T03:43:51;15.80;99.90
1546;DHT22;766;51.502;9.752;2023-07-13T03:46:19;15.70;99.90
1546;DHT22;766;51.502;9.752;2023-07-13T03:48:48;15.80;99.90
1546;DHT22;766;51.502;9.752;2023-07-13T03:51:18;15.80;99.90
1546;DHT22;766;51.502;9.752;2023-07-13T03:53:48;15.90;99.90
1546;DHT22;766;51.502;9.752;2023-07-13T03:56:18;15.90;99.90
1546;DHT22;766;51.502;9.752;2023-07-13T03:58:49;15.80;99.90
1546;DHT22;766;51.502;9.752;2023-07-13T04:01:19;15.70;99.90
1546;DHT22;766;51.502;9.752;2023-07-13T04:03:48;15.80;99.90
1546;DHT22;766;51.502;9.752;2023-07-13T04:06:18;15.80;99.90
1546;DHT22;766;51.502;9.752;2023-07-13T04:08:52;15.90;99.90
1546;DHT22;766;51.502;9.752;2023-07-13T04:13:50;15.90;99.90
1546;DHT22;766;51.502;9.752;2023-07-13T04:16:19;16.10;99.90
1546;DHT22;766;51.502;9.752;2023-07-13T04:18:49;16.10;99.90
1546;DHT22;766;51.502;9.752;2023-07-13T04:21:22;15.90;99.90
1546;DHT22;766;51.502;9.752;2023-07-13T04:23:52;16.00;99.90
1546;DHT22;766;51.502;9.752;2023-07-13T04:26:21;16.10;99.90
1546;DHT22;766;51.502;9.752;2023-07-13T04:28:52;16.10;99.90
1546;DHT22;766;51.502;9.752;2023-07-13T04:31:23;16.10;99.90
1546;DHT22;766;51.502;9.752;2023-07-13T04:33:52;16.10;99.90
1546;DHT22;766;51.502;9.752;2023-07-13T04:36:20;16.20;99.90
1546;DHT22;766;51.502;9.752;2023-07-13T04:38:48;16.20;99.90
1546;DHT22;766;51.502;9.752;2023-07-13T04:41:18;16.10;99.90
1546;DHT22;766;51.502;9.752;2023-07-13T04:43:47;16.10;99.90
1546;DHT22;766;51.502;9.752;2023-07-13T04:46:17;16.10;99.90
1546;DHT22;766;51.502;9.752;2023-07-13T04:48:46;16.30;99.90
1546;DHT22;766;51.502;9.752;2023-07-13T04:51:14;16.30;99.90
1546;DHT22;766;51.502;9.752;2023-07-13T04:53:43;16.40;99.90
1546;DHT22;766;51.502;9.752;2023-07-13T04:56:12;16.30;99.90
1546;DHT22;766;51.502;9.752;2023-07-13T04:58:43;16.30;99.90
1546;DHT22;766;51.502;9.752;2023-07-13T05:01:11;16.40;99.90
1546;DHT22;766;51.502;9.752;2023-07-13T05:03:41;16.50;99.90
1546;DHT22;766;51.502;9.752;2023-07-13T05:06:13;16.60;99.90
1546;DHT22;766;51.502;9.752;2023-07-13T05:08:41;16.80;99.90
1546;DHT22;766;51.502;9.752;2023-07-13T05:11:10;16.90;99.90
1546;DHT22;766;51.502;9.752;2023-07-13T05:13:39;17.00;99.90
1546;DHT22;766;51.502;9.752;2023-07-13T05:16:09;17.50;99.90
1546;DHT22;766;51.502;9.752;2023-07-13T05:18:37;18.20;99.90
1546;DHT22;766;51.502;9.752;2023-07-13T05:21:10;18.70;99.90
1546;DHT22;766;51.502;9.752;2023-07-13T05:23:40;19.10;99.90
1546;DHT22;766;51.502;9.752;2023-07-13T05:26:10;18.80;99.90
1546;DHT22;766;51.502;9.752;2023-07-13T05:28:39;18.70;99.90
1546;DHT22;766;51.502;9.752;2023-07-13T05:31:09;18.80;99.90
1546;DHT22;766;51.502;9.752;2023-07-13T05:33:39;19.00;99.90
1546;DHT22;766;51.502;9.752;2023-07-13T05:36:07;19.40;99.90
1546;DHT22;766;51.502;9.752;2023-07-13T05:38:36;20.20;99.90
1546;DHT22;766;51.502;9.752;2023-07-13T05:41:06;21.10;99.90
1546;DHT22;766;51.502;9.752;2023-07-13T05:43:40;21.80;99.90
1546;DHT22;766;51.502;9.752;2023-07-13T05:46:41;22.70;99.90
1546;DHT22;766;51.502;9.752;2023-07-13T05:49:46;23.00;99.90
1546;DHT22;766;51.502;9.752;2023-07-13T05:52:15;23.90;99.90
1546;DHT22;766;51.502;9.752;2023-07-13T05:54:46;23.50;99.90
1546;DHT22;766;51.502;9.752;2023-07-13T05:57:15;23.90;99.90
1546;DHT22;766;51.502;9.752;2023-07-13T05:59:43;24.40;99.90
1546;DHT22;766;51.502;9.752;2023-07-13T06:02:14;23.90;99.90
1546;DHT22;766;51.502;9.752;2023-07-13T06:04:42;23.70;99.90
1546;DHT22;766;51.502;9.752;2023-07-13T06:07:11;24.20;99.90
1546;DHT22;766;51.502;9.752;2023-07-13T06:09:39;24.30;99.90
1546;DHT22;766;51.502;9.752;2023-07-13T06:12:08;24.50;99.90
1546;DHT22;766;51.502;9.752;2023-07-13T06:14:36;24.60;99.90
1546;DHT22;766;51.502;9.752;2023-07-13T06:17:05;23.90;99.90
1546;DHT22;766;51.502;9.752;2023-07-13T06:19:35;24.20;99.90
1546;DHT22;766;51.502;9.752;2023-07-13T06:22:04;24.00;99.90
1546;DHT22;766;51.502;9.752;2023-07-13T06:24:32;23.40;99.90
1546;DHT22;766;51.502;9.752;2023-07-13T06:27:01;24.20;99.90
1546;DHT22;766;51.502;9.752;2023-07-13T06:29:30;24.80;99.90
1546;DHT22;766;51.502;9.752;2023-07-13T06:31:58;25.50;99.90
1546;DHT22;766;51.502;9.752;2023-07-13T06:34:27;25.20;99.90
1546;DHT22;766;51.502;9.752;2023-07-13T06:36:57;25.20;99.90
1546;DHT22;766;51.502;9.752;2023-07-13T06:39:27;25.00;99.90
1546;DHT22;766;51.502;9.752;2023-07-13T06:41:55;25.10;99.90
1546;DHT22;766;51.502;9.752;2023-07-13T06:44:24;25.70;99.90
1546;DHT22;766;51.502;9.752;2023-07-13T06:46:53;26.10;99.90
1546;DHT22;766;51.502;9.752;2023-07-13T06:49:21;26.30;99.90
1546;DHT22;766;51.502;9.752;2023-07-13T06:51:49;25.00;99.90
1546;DHT22;766;51.502;9.752;2023-07-13T06:54:20;26.80;99.90
1546;DHT22;766;51.502;9.752;2023-07-13T06:56:48;26.60;99.90
1546;DHT22;766;51.502;9.752;2023-07-13T06:59:16;26.30;99.90
1546;DHT22;766;51.502;9.752;2023-07-13T07:01:45;26.60;99.90
1546;DHT22;766;51.502;9.752;2023-07-13T07:04:13;25.70;99.90
1546;DHT22;766;51.502;9.752;2023-07-13T07:06:41;26.50;99.90
1546;DHT22;766;51.502;9.752;2023-07-13T07:09:10;27.00;99.90
1546;DHT22;766;51.502;9.752;2023-07-13T07:11:40;26.80;99.90
1546;DHT22;766;51.502;9.752;2023-07-13T07:14:27;27.20;99.90
1546;DHT22;766;51.502;9.752;2023-07-13T07:16:55;27.20;99.90
1546;DHT22;766;51.502;9.752;2023-07-13T07:19:26;26.90;99.90
1546;DHT22;766;51.502;9.752;2023-07-13T07:21:54;25.90;99.90
1546;DHT22;766;51.502;9.752;2023-07-13T07:24:22;26.70;99.90
1546;DHT22;766;51.502;9.752;2023-07-13T07:26:52;26.60;99.90
1546;DHT22;766;51.502;9.752;2023-07-13T07:29:23;28.50;99.90
1546;DHT22;766;51.502;9.752;2023-07-13T07:31:56;27.10;99.90
1546;DHT22;766;51.502;9.752;2023-07-13T07:34:27;28.70;99.90
1546;DHT22;766;51.502;9.752;2023-07-13T07:36:59;29.30;99.90
1546;DHT22;766;51.502;9.752;2023-07-13T07:39:31;28.10;99.90
1546;DHT22;766;51.502;9.752;2023-07-13T07:42:01;28.50;99.90
1546;DHT22;766;51.502;9.752;2023-07-13T07:44:30;29.30;99.90
1546;DHT22;766;51.502;9.752;2023-07-13T07:46:59;29.50;99.90
1546;DHT22;766;51.502;9.752;2023-07-13T07:49:28;27.30;99.90
1546;DHT22;766;51.502;9.752;2023-07-13T07:51:57;27.80;99.90
1546;DHT22;766;51.502;9.752;2023-07-13T07:54:25;27.80;99.90
1546;DHT22;766;51.502;9.752;2023-07-13T07:57:14;28.30;99.90
1546;DHT22;766;51.502;9.752;2023-07-13T07:59:46;29.50;99.90
1546;DHT22;766;51.502;9.752;2023-07-13T08:02:18;29.80;99.90
1546;DHT22;766;51.502;9.752;2023-07-13T08:04:49;29.80;99.90
1546;DHT22;766;51.502;9.752;2023-07-13T08:07:21;30.50;99.30
1546;DHT22;766;51.502;9.752;2023-07-13T08:09:52;29.30;99.90
1546;DHT22;766;51.502;9.752;2023-07-13T08:12:21;28.60;99.90
1546;DHT22;766;51.502;9.752;2023-07-13T08:14:53;28.10;99.90
1546;DHT22;766;51.502;9.752;2023-07-13T08:17:25;28.10;99.90
1546;DHT22;766;51.502;9.752;2023-07-13T08:19:54;26.70;99.90
1546;DHT22;766;51.502;9.752;2023-07-13T08:22:22;27.00;99.90
1546;DHT22;766;51.502;9.752;2023-07-13T08:24:51;26.80;99.90
1546;DHT22;766;51.502;9.752;2023-07-13T08:27:25;27.00;99.90
1546;DHT22;766;51.502;9.752;2023-07-13T08:29:55;27.70;99.90
1546;DHT22;766;51.502;9.752;2023-07-13T08:32:24;26.60;99.90
1546;DHT22;766;51.502;9.752;2023-07-13T08:34:52;27.70;99.90
1546;DHT22;766;51.502;9.752;2023-07-13T08:37:25;28.20;99.90
1546;DHT22;766;51.502;9.752;2023-07-13T08:39:57;28.30;99.90
1546;DHT22;766;51.502;9.752;2023-07-13T08:42:35;29.00;99.90
1546;DHT22;766;51.502;9.752;2023-07-13T08:45:14;29.80;99.90
1546;DHT22;766;51.502;9.752;2023-07-13T08:47:48;30.60;99.90
1546;DHT22;766;51.502;9.752;2023-07-13T08:50:24;30.70;98.80
1546;DHT22;766;51.502;9.752;2023-07-13T08:52:55;29.00;99.90
1546;DHT22;766;51.502;9.752;2023-07-13T08:55:28;29.60;99.90
1546;DHT22;766;51.502;9.752;2023-07-13T08:58:05;29.40;99.90
1546;DHT22;766;51.502;9.752;2023-07-13T09:00:43;29.10;99.90
1546;DHT22;766;51.502;9.752;2023-07-13T09:03:20;28.60;99.90
1546;DHT22;766;51.502;9.752;2023-07-13T09:05:54;28.50;99.90
1546;DHT22;766;51.502;9.752;2023-07-13T09:08:37;29.20;99.80
1546;DHT22;766;51.502;9.752;2023-07-13T09:11:23;29.40;99.30
1546;DHT22;766;51.502;9.752;2023-07-13T09:14:06;29.30;99.90
1546;DHT22;766;51.502;9.752;2023-07-13T09:16:38;30.30;97.60
1546;DHT22;766;51.502;9.752;2023-07-13T09:19:13;30.80;97.30
1546;DHT22;766;51.502;9.752;2023-07-13T09:21:44;30.70;97.20
1546;DHT22;766;51.502;9.752;2023-07-13T09:24:36;31.10;97.50
1546;DHT22;766;51.502;9.752;2023-07-13T09:27:18;29.60;97.50
1546;DHT22;766;51.502;9.752;2023-07-13T09:29:54;29.10;97.70
1546;DHT22;766;51.502;9.752;2023-07-13T09:32:26;28.80;98.30
1546;DHT22;766;51.502;9.752;2023-07-13T09:34:56;28.80;98.10
1546;DHT22;766;51.502;9.752;2023-07-13T09:37:29;28.90;97.60
1546;DHT22;766;51.502;9.752;2023-07-13T09:39:59;29.00;98.30
1546;DHT22;766;51.502;9.752;2023-07-13T09:42:32;27.80;99.20
1546;DHT22;766;51.502;9.752;2023-07-13T09:45:03;27.40;99.90
1546;DHT22;766;51.502;9.752;2023-07-13T09:47:38;28.10;99.90
1546;DHT22;766;51.502;9.752;2023-07-13T09:50:10;28.70;99.30
1546;DHT22;766;51.502;9.752;2023-07-13T09:52:47;29.10;97.70
1546;DHT22;766;51.502;9.752;2023-07-13T09:55:25;29.50;97.80
1546;DHT22;766;51.502;9.752;2023-07-13T09:57:54;30.00;97.10
1546;DHT22;766;51.502;9.752;2023-07-13T10:00:26;29.60;97.00
1546;DHT22;766;51.502;9.752;2023-07-13T10:03:03;28.30;98.30
1546;DHT22;766;51.502;9.752;2023-07-13T10:05:39;27.30;99.80
1546;DHT22;766;51.502;9.752;2023-07-13T10:08:19;26.40;99.90
1546;DHT22;766;51.502;9.752;2023-07-13T10:10:53;26.10;99.90
1546;DHT22;766;51.502;9.752;2023-07-13T10:13:27;26.10;99.90
1546;DHT22;766;51.502;9.752;2023-07-13T10:15:59;26.40;99.90
1546;DHT22;766;51.502;9.752;2023-07-13T10:18:28;27.10;99.90
1546;DHT22;766;51.502;9.752;2023-07-13T10:21:09;26.90;99.90
1546;DHT22;766;51.502;9.752;2023-07-13T10:24:04;26.80;99.90
1546;DHT22;766;51.502;9.752;2023-07-13T10:26:34;26.50;99.90
1546;DHT22;766;51.502;9.752;2023-07-13T10:29:06;27.90;99.90
1546;DHT22;766;51.502;9.752;2023-07-13T10:31:40;29.90;99.50
1546;DHT22;766;51.502;9.752;2023-07-13T10:34:10;31.60;97.00
1546;DHT22;766;51.502;9.752;2023-07-13T10:36:41;31.50;96.80
1546;DHT22;766;51.502;9.752;2023-07-13T10:39:16;31.90;95.00
1546;DHT22;766;51.502;9.752;2023-07-13T10:41:49;31.30;94.60
1546;DHT22;766;51.502;9.752;2023-07-13T10:44:23;31.20;94.80
1546;DHT22;766;51.502;9.752;2023-07-13T10:46:59;30.10;93.10
1546;DHT22;766;51.502;9.752;2023-07-13T10:49:31;28.60;95.00
1546;DHT22;766;51.502;9.752;2023-07-13T10:51:59;28.30;95.90
1546;DHT22;766;51.502;9.752;2023-07-13T10:54:31;28.10;96.30
1546;DHT22;766;51.502;9.752;2023-07-13T10:57:16;28.10;98.70
1546;DHT22;766;51.502;9.752;2023-07-13T11:02:37;27.90;98.10
1546;DHT22;766;51.502;9.752;2023-07-13T11:05:22;27.10;99.10
1546;DHT22;766;51.502;9.752;2023-07-13T11:07:56;27.80;98.40
1546;DHT22;766;51.502;9.752;2023-07-13T11:10:51;27.80;97.40
1546;DHT22;766;51.502;9.752;2023-07-13T11:13:56;27.30;98.60
1546;DHT22;766;51.502;9.752;2023-07-13T11:16:43;28.20;99.20
1546;DHT22;766;51.502;9.752;2023-07-13T11:19:41;28.40;97.90
1546;DHT22;766;51.502;9.752;2023-07-13T11:22:15;29.20;98.30
1546;DHT22;766;51.502;9.752;2023-07-13T11:24:57;29.40;97.20
1546;DHT22;766;51.502;9.752;2023-07-13T11:27:39;29.30;97.40
1546;DHT22;766;51.502;9.752;2023-07-13T11:30:25;28.40;96.70
1546;DHT22;766;51.502;9.752;2023-07-13T11:33:04;27.70;99.50
1546;DHT22;766;51.502;9.752;2023-07-13T11:35:47;28.10;98.40
1546;DHT22;766;51.502;9.752;2023-07-13T11:38:20;28.50;97.70
1546;DHT22;766;51.502;9.752;2023-07-13T11:40:53;29.00;96.80
1546;DHT22;766;51.502;9.752;2023-07-13T11:43:23;29.70;96.00
1546;DHT22;766;51.502;9.752;2023-07-13T11:45:51;30.10;95.60
1546;DHT22;766;51.502;9.752;2023-07-13T11:48:23;30.10;96.70
1546;DHT22;766;51.502;9.752;2023-07-13T11:50:57;30.10;95.90
1546;DHT22;766;51.502;9.752;2023-07-13T11:53:28;30.20;96.20
1546;DHT22;766;51.502;9.752;2023-07-13T11:55:58;30.60;95.50
1546;DHT22;766;51.502;9.752;2023-07-13T11:58:27;29.90;95.90
1546;DHT22;766;51.502;9.752;2023-07-13T12:00:59;29.90;96.50
1546;DHT22;766;51.502;9.752;2023-07-13T12:03:35;28.90;96.20
1546;DHT22;766;51.502;9.752;2023-07-13T12:06:06;28.10;97.50
1546;DHT22;766;51.502;9.752;2023-07-13T12:08:50;27.70;97.30
1546;DHT22;766;51.502;9.752;2023-07-13T12:11:19;27.30;96.90
1546;DHT22;766;51.502;9.752;2023-07-13T12:13:47;27.60;98.30
1546;DHT22;766;51.502;9.752;2023-07-13T12:16:17;28.40;98.50
1546;DHT22;766;51.502;9.752;2023-07-13T12:18:52;29.00;96.80
1546;DHT22;766;51.502;9.752;2023-07-13T12:21:29;29.00;97.20
1546;DHT22;766;51.502;9.752;2023-07-13T12:23:58;28.70;96.40
1546;DHT22;766;51.502;9.752;2023-07-13T12:26:30;28.60;97.80
1546;DHT22;766;51.502;9.752;2023-07-13T12:29:00;29.00;97.30
1546;DHT22;766;51.502;9.752;2023-07-13T12:31:35;29.20;97.10
1546;DHT22;766;51.502;9.752;2023-07-13T12:34:08;28.40;97.50
1546;DHT22;766;51.502;9.752;2023-07-13T12:36:45;28.00;97.50
1546;DHT22;766;51.502;9.752;2023-07-13T12:39:18;27.20;97.00
1546;DHT22;766;51.502;9.752;2023-07-13T12:41:47;26.90;97.80
1546;DHT22;766;51.502;9.752;2023-07-13T12:44:24;27.10;97.50
1546;DHT22;766;51.502;9.752;2023-07-13T12:46:56;27.00;97.20
1546;DHT22;766;51.502;9.752;2023-07-13T12:49:31;26.60;98.20
1546;DHT22;766;51.502;9.752;2023-07-13T12:52:10;26.30;98.10
1546;DHT22;766;51.502;9.752;2023-07-13T12:54:41;26.00;98.90
1546;DHT22;766;51.502;9.752;2023-07-13T12:57:26;26.10;98.90
1546;DHT22;766;51.502;9.752;2023-07-13T12:59:55;26.40;99.30
1546;DHT22;766;51.502;9.752;2023-07-13T13:02:29;26.30;99.90
1546;DHT22;766;51.502;9.752;2023-07-13T13:04:58;26.60;99.90
1546;DHT22;766;51.502;9.752;2023-07-13T13:07:28;26.70;99.90
1546;DHT22;766;51.502;9.752;2023-07-13T13:09:56;26.60;99.70
1546;DHT22;766;51.502;9.752;2023-07-13T13:12:25;26.60;98.20
1546;DHT22;766;51.502;9.752;2023-07-13T13:14:53;26.40;98.10
1546;DHT22;766;51.502;9.752;2023-07-13T13:17:24;26.60;98.30
1546;DHT22;766;51.502;9.752;2023-07-13T13:19:55;26.40;97.80
1546;DHT22;766;51.502;9.752;2023-07-13T13:22:24;26.40;99.40
1546;DHT22;766;51.502;9.752;2023-07-13T13:24:53;26.40;98.40
1546;DHT22;766;51.502;9.752;2023-07-13T13:27:22;26.20;99.00
1546;DHT22;766;51.502;9.752;2023-07-13T13:29:51;26.30;99.10
1546;DHT22;766;51.502;9.752;2023-07-13T13:32:20;26.30;99.80
1546;DHT22;766;51.502;9.752;2023-07-13T13:34:48;26.10;99.90
1546;DHT22;766;51.502;9.752;2023-07-13T13:37:20;25.70;99.90
1546;DHT22;766;51.502;9.752;2023-07-13T13:39:49;25.70;99.90
1546;DHT22;766;51.502;9.752;2023-07-13T13:42:36;25.70;99.90
1546;DHT22;766;51.502;9.752;2023-07-13T13:45:06;25.90;99.90
1546;DHT22;766;51.502;9.752;2023-07-13T13:47:35;25.80;99.90
1546;DHT22;766;51.502;9.752;2023-07-13T13:50:12;25.50;99.90
1546;DHT22;766;51.502;9.752;2023-07-13T13:52:42;25.20;99.90
1546;DHT22;766;51.502;9.752;2023-07-13T13:55:14;25.00;99.90
1546;DHT22;766;51.502;9.752;2023-07-13T13:57:44;25.30;99.30
1546;DHT22;766;51.502;9.752;2023-07-13T14:00:13;25.20;99.90
1546;DHT22;766;51.502;9.752;2023-07-13T14:02:46;25.20;99.90
1546;DHT22;766;51.502;9.752;2023-07-13T14:05:21;25.20;99.80
1546;DHT22;766;51.502;9.752;2023-07-13T14:07:50;25.00;99.30
1546;DHT22;766;51.502;9.752;2023-07-13T14:10:20;24.90;99.80
1546;DHT22;766;51.502;9.752;2023-07-13T14:12:52;25.00;99.90
1546;DHT22;766;51.502;9.752;2023-07-13T14:15:23;25.00;99.90
1546;DHT22;766;51.502;9.752;2023-07-13T14:17:52;25.00;99.90
1546;DHT22;766;51.502;9.752;2023-07-13T14:20:22;24.80;99.90
1546;DHT22;766;51.502;9.752;2023-07-13T14:22:52;24.90;99.90
1546;DHT22;766;51.502;9.752;2023-07-13T14:25:22;25.10;99.90
1546;DHT22;766;51.502;9.752;2023-07-13T14:27:56;25.30;99.90
1546;DHT22;766;51.502;9.752;2023-07-13T14:30:26;25.00;99.90
1546;DHT22;766;51.502;9.752;2023-07-13T14:32:57;25.00;99.90
1546;DHT22;766;51.502;9.752;2023-07-13T14:35:26;24.90;99.90
1546;DHT22;766;51.502;9.752;2023-07-13T14:37:55;24.80;99.90
1546;DHT22;766;51.502;9.752;2023-07-13T14:40:27;24.70;99.90
1546;DHT22;766;51.502;9.752;2023-07-13T14:42:58;24.70;99.90
1546;DHT22;766;51.502;9.752;2023-07-13T14:45:26;24.70;99.90
1546;DHT22;766;51.502;9.752;2023-07-13T14:47:55;24.70;99.90
1546;DHT22;766;51.502;9.752;2023-07-13T14:50:29;24.70;99.90
1546;DHT22;766;51.502;9.752;2023-07-13T14:52:58;24.70;99.90
1546;DHT22;766;51.502;9.752;2023-07-13T14:55:26;24.40;99.90
1546;DHT22;766;51.502;9.752;2023-07-13T14:57:56;24.40;99.90
1546;DHT22;766;51.502;9.752;2023-07-13T15:00:25;24.30;99.90
1546;DHT22;766;51.502;9.752;2023-07-13T15:02:56;24.30;99.90
1546;DHT22;766;51.502;9.752;2023-07-13T15:05:27;24.20;99.90
1546;DHT22;766;51.502;9.752;2023-07-13T15:08:00;24.30;99.90
1546;DHT22;766;51.502;9.752;2023-07-13T15:10:31;24.10;99.90
1546;DHT22;766;51.502;9.752;2023-07-13T15:13:13;24.10;99.90
1546;DHT22;766;51.502;9.752;2023-07-13T15:15:45;24.10;99.90
1546;DHT22;766;51.502;9.752;2023-07-13T15:18:15;24.10;99.90
1546;DHT22;766;51.502;9.752;2023-07-13T15:20:44;24.30;99.90
1546;DHT22;766;51.502;9.752;2023-07-13T15:23:14;24.20;99.90
1546;DHT22;766;51.502;9.752;2023-07-13T15:25:44;24.30;99.90
1546;DHT22;766;51.502;9.752;2023-07-13T15:28:14;24.10;99.90
1546;DHT22;766;51.502;9.752;2023-07-13T15:30:45;24.10;99.90
1546;DHT22;766;51.502;9.752;2023-07-13T15:33:17;23.90;99.90
1546;DHT22;766;51.502;9.752;2023-07-13T15:35:47;23.70;99.90
1546;DHT22;766;51.502;9.752;2023-07-13T15:38:17;23.70;99.90
1546;DHT22;766;51.502;9.752;2023-07-13T15:40:46;23.70;99.90
1546;DHT22;766;51.502;9.752;2023-07-13T15:43:17;23.70;99.90
1546;DHT22;766;51.502;9.752;2023-07-13T15:45:46;23.70;99.90
1546;DHT22;766;51.502;9.752;2023-07-13T15:48:16;23.80;99.90
1546;DHT22;766;51.502;9.752;2023-07-13T15:50:48;23.80;99.90
1546;DHT22;766;51.502;9.752;2023-07-13T15:53:19;23.60;99.90
1546;DHT22;766;51.502;9.752;2023-07-13T15:55:48;23.70;99.90
1546;DHT22;766;51.502;9.752;2023-07-13T15:58:19;23.80;99.90
1546;DHT22;766;51.502;9.752;2023-07-13T16:00:48;23.90;99.90
1546;DHT22;766;51.502;9.752;2023-07-13T16:03:19;24.00;99.90
1546;DHT22;766;51.502;9.752;2023-07-13T16:05:50;24.00;99.90
1546;DHT22;766;51.502;9.752;2023-07-13T16:08:25;23.90;99.90
1546;DHT22;766;51.502;9.752;2023-07-13T16:10:55;23.60;99.90
1546;DHT22;766;51.502;9.752;2023-07-13T16:13:26;23.40;99.90
1546;DHT22;766;51.502;9.752;2023-07-13T16:15:55;23.30;99.90
1546;DHT22;766;51.502;9.752;2023-07-13T16:18:24;23.30;99.90
1546;DHT22;766;51.502;9.752;2023-07-13T16:20:56;23.20;99.90
1546;DHT22;766;51.502;9.752;2023-07-13T16:23:26;23.10;99.90
1546;DHT22;766;51.502;9.752;2023-07-13T16:25:55;23.10;99.90
1546;DHT22;766;51.502;9.752;2023-07-13T16:28:25;23.10;99.90
1546;DHT22;766;51.502;9.752;2023-07-13T16:30:54;23.20;99.90
1546;DHT22;766;51.502;9.752;2023-07-13T16:33:23;23.10;99.90
1546;DHT22;766;51.502;9.752;2023-07-13T16:35:52;23.00;99.90
1546;DHT22;766;51.502;9.752;2023-07-13T16:38:22;22.80;99.90
1546;DHT22;766;51.502;9.752;2023-07-13T16:40:51;22.90;99.90
1546;DHT22;766;51.502;9.752;2023-07-13T16:43:19;22.70;99.90
1546;DHT22;766;51.502;9.752;2023-07-13T16:45:51;22.80;99.90
1546;DHT22;766;51.502;9.752;2023-07-13T16:48:22;22.50;99.90
1546;DHT22;766;51.502;9.752;2023-07-13T16:50:55;22.20;99.90